createdAt,value
2023-01-13T00:01:50.778Z,99970.34
2023-01-13T00:04:18.773Z,99967.53
2023-01-13T00:06:48.211Z,99961.56
2023-01-13T00:09:16.951Z,99968.69
2023-01-13T00:11:47.680Z,99971.34
2023-01-13T00:14:15.872Z,99966.56
2023-01-13T00:16:44.455Z,99968.38
2023-01-13T00:19:12.718Z,99966.94
2023-01-13T00:21:41.946Z,99977.53
2023-01-13T00:24:12.010Z,99970.25
2023-01-13T00:26:40.520Z,99977.19
2023-01-13T00:29:08.472Z,99969.75
2023-01-13T00:31:37.119Z,99955.66
2023-01-13T00:34:06.102Z,99968.13
2023-01-13T00:36:35.098Z,99971.41
2023-01-13T00:39:03.906Z,99960.31
2023-01-13T00:41:53.711Z,99960.03
2023-01-13T00:44:21.051Z,99960.03
2023-01-13T00:46:49.625Z,99954.72
2023-01-13T00:49:18.137Z,99965.00
2023-01-13T00:51:46.859Z,99964.00
2023-01-13T00:54:16.265Z,99962.03
2023-01-13T00:56:46.258Z,99963.19
2023-01-13T00:59:15.643Z,99956.38
2023-01-13T01:01:44.908Z,99952.91
2023-01-13T01:04:13.008Z,99958.22
2023-01-13T01:06:42.105Z,99958.72
2023-01-13T01:09:13.409Z,99961.69
2023-01-13T01:11:42.697Z,99965.69
2023-01-13T01:14:14.187Z,99959.22
2023-01-13T01:16:42.999Z,99972.63
2023-01-13T01:19:11.920Z,99975.97
2023-01-13T01:21:42.638Z,99971.84
2023-01-13T01:24:11.700Z,99973.50
2023-01-13T01:26:41.945Z,99976.81
2023-01-13T01:29:16.840Z,99964.06
2023-01-13T01:31:45.160Z,99967.53
2023-01-13T01:34:14.614Z,99964.41
2023-01-13T01:36:42.983Z,99961.56
2023-01-13T01:39:12.424Z,99966.88
2023-01-13T01:42:01.830Z,99963.72
2023-01-13T01:44:55.608Z,99953.13
2023-01-13T01:47:24.258Z,99965.91
2023-01-13T01:49:52.377Z,99949.16
2023-01-13T01:52:25.603Z,99951.13
2023-01-13T01:54:57.197Z,99948.00
2023-01-13T01:57:29.184Z,99954.16
2023-01-13T02:00:00.898Z,99951.66
2023-01-13T02:02:30.224Z,99940.38
2023-01-13T02:04:59.825Z,99950.00
2023-01-13T02:07:29.990Z,99937.72
2023-01-13T02:09:59.919Z,99942.03
2023-01-13T02:12:32.051Z,99948.84
2023-01-13T02:15:07.605Z,99946.34
2023-01-13T02:18:01.278Z,99936.91
2023-01-13T02:21:07.773Z,99943.03
2023-01-13T02:24:21.778Z,99937.59
2023-01-13T02:27:17.700Z,99934.09
2023-01-13T02:30:11.616Z,99931.44
2023-01-13T02:32:48.206Z,99929.09
2023-01-13T02:35:23.827Z,99927.63
2023-01-13T02:37:53.027Z,99928.94
2023-01-13T02:40:26.945Z,99926.13
2023-01-13T02:43:19.049Z,99924.47
2023-01-13T02:45:54.275Z,99928.78
2023-01-13T02:48:23.814Z,99929.59
2023-01-13T02:50:56.821Z,99925.97
2023-01-13T02:53:27.923Z,99919.66
2023-01-13T02:55:56.993Z,99920.16
2023-01-13T02:58:28.070Z,99929.09
2023-01-13T03:00:58.532Z,99919.00
2023-01-13T03:03:27.265Z,99916.19
2023-01-13T03:06:00.283Z,99917.34
2023-01-13T03:08:39.445Z,99915.50
2023-01-13T03:11:08.787Z,99918.66
2023-01-13T03:13:52.325Z,99915.00
2023-01-13T03:16:30.315Z,99916.00
2023-01-13T03:19:06.367Z,99918.34
2023-01-13T03:21:38.538Z,99901.41
2023-01-13T03:24:10.803Z,99896.78
2023-01-13T03:26:44.875Z,99899.94
2023-01-13T03:29:18.669Z,99903.91
2023-01-13T03:31:55.266Z,99903.72
2023-01-13T03:34:26.680Z,99907.03
2023-01-13T03:36:56.420Z,99907.56
2023-01-13T03:39:29.291Z,99912.34
2023-01-13T03:42:00.490Z,99904.22
2023-01-13T03:44:32.954Z,99898.78
2023-01-13T03:47:09.088Z,99907.03
2023-01-13T03:49:40.526Z,99915.84
2023-01-13T03:52:20.154Z,99909.38
2023-01-13T03:54:51.664Z,99901.75
2023-01-13T03:57:21.695Z,99901.44
2023-01-13T03:59:52.755Z,99908.06
2023-01-13T04:02:30.808Z,99911.19
2023-01-13T04:05:01.451Z,99899.59
2023-01-13T04:07:35.033Z,99894.13
2023-01-13T04:10:04.893Z,99897.25
2023-01-13T04:12:48.685Z,99901.06
2023-01-13T04:15:17.383Z,99890.81
2023-01-13T04:17:47.427Z,99895.94
2023-01-13T04:20:17.555Z,99894.44
2023-01-13T04:22:45.659Z,99890.81
2023-01-13T04:25:15.333Z,99905.06
2023-01-13T04:27:43.647Z,99903.41
2023-01-13T04:30:12.968Z,99896.63
2023-01-13T04:32:43.520Z,99896.44
2023-01-13T04:35:13.371Z,99909.38
2023-01-13T04:37:41.420Z,99902.72
2023-01-13T04:40:10.699Z,99909.03
2023-01-13T04:42:39.451Z,99905.22
2023-01-13T04:45:08.299Z,99899.41
2023-01-13T04:47:36.545Z,99909.03
2023-01-13T04:50:05.062Z,99897.59
2023-01-13T04:52:36.460Z,99898.75
2023-01-13T04:55:05.005Z,99902.22
2023-01-13T04:57:34.950Z,99913.34
2023-01-13T05:00:03.049Z,99913.84
2023-01-13T05:02:31.185Z,99909.34
2023-01-13T05:04:59.381Z,99900.91
2023-01-13T05:07:28.078Z,99921.28
2023-01-13T05:09:57.485Z,99923.78
2023-01-13T05:12:43.695Z,99920.00
2023-01-13T05:15:30.629Z,99923.97
2023-01-13T05:17:58.725Z,99934.09
2023-01-13T05:20:26.661Z,99920.97
2023-01-13T05:23:12.073Z,99927.94
2023-01-13T05:25:44.516Z,99923.47
2023-01-13T05:28:13.194Z,99922.94
2023-01-13T05:30:43.561Z,99930.41
2023-01-13T05:33:12.797Z,99927.88
2023-01-13T05:35:41.392Z,99934.84
2023-01-13T05:38:10.050Z,99931.53
2023-01-13T05:40:56.724Z,99923.22
2023-01-13T05:43:26.663Z,99929.22
2023-01-13T05:45:58.194Z,99928.88
2023-01-13T05:48:28.614Z,99922.41
2023-01-13T05:50:59.656Z,99925.25
2023-01-13T05:53:28.582Z,99925.91
2023-01-13T05:55:57.152Z,99933.53
2023-01-13T05:58:28.494Z,99937.88
2023-01-13T06:01:01.121Z,99949.31
2023-01-13T06:03:30.297Z,99951.78
2023-01-13T06:06:02.103Z,99960.41
2023-01-13T06:08:31.583Z,99963.06
2023-01-13T06:10:59.779Z,99958.59
2023-01-13T06:13:29.535Z,99957.13
2023-01-13T06:15:59.067Z,99965.38
2023-01-13T06:18:27.342Z,99949.13
2023-01-13T06:20:56.829Z,99954.75
2023-01-13T06:23:25.191Z,99957.09
2023-01-13T06:25:56.714Z,99964.91
2023-01-13T06:28:24.905Z,99972.06
2023-01-13T06:30:57.601Z,99965.38
2023-01-13T06:33:29.753Z,99965.59
2023-01-13T06:36:03.002Z,99969.72
2023-01-13T06:38:32.113Z,99963.13
2023-01-13T06:41:01.427Z,99957.63
2023-01-13T06:43:28.469Z,99971.56
2023-01-13T06:45:58.083Z,99970.59
2023-01-13T06:48:32.935Z,99965.94
2023-01-13T06:51:01.032Z,99949.50
2023-01-13T06:53:29.545Z,99956.16
2023-01-13T06:55:57.812Z,99941.22
2023-01-13T06:58:26.057Z,99912.34
2023-01-13T07:00:54.517Z,99948.66
2023-01-13T07:03:25.715Z,99957.59
2023-01-13T07:05:55.296Z,99958.13
2023-01-13T07:08:24.106Z,99956.28
2023-01-13T07:10:53.643Z,99958.75
2023-01-13T07:13:39.784Z,99949.47
2023-01-13T07:16:09.903Z,99946.66
2023-01-13T07:18:41.844Z,99959.78
2023-01-13T07:21:12.062Z,99954.16
2023-01-13T07:23:41.811Z,99948.19
2023-01-13T07:26:12.900Z,99939.56
2023-01-13T07:28:41.504Z,99919.00
2023-01-13T07:31:16.335Z,99917.03
2023-01-13T07:33:45.820Z,99932.94
2023-01-13T07:36:14.846Z,99943.72
2023-01-13T07:38:44.880Z,99928.28
2023-01-13T07:41:32.212Z,99927.63
2023-01-13T07:44:05.164Z,99954.16
2023-01-13T07:46:33.613Z,99945.88
2023-01-13T07:49:05.963Z,99943.22
2023-01-13T07:51:37.991Z,99953.16
2023-01-13T07:54:06.817Z,99958.97
2023-01-13T07:56:34.979Z,99963.63
2023-01-13T07:59:04.287Z,99976.06
2023-01-13T08:01:32.960Z,99962.44
2023-01-13T08:04:03.947Z,99958.84
2023-01-13T08:06:32.650Z,99960.13
2023-01-13T08:09:00.762Z,99969.09
2023-01-13T08:11:28.902Z,99978.88
2023-01-13T08:13:58.582Z,100003.25
2023-01-13T08:16:26.727Z,100000.13
2023-01-13T08:18:55.074Z,99996.59
2023-01-13T08:21:24.416Z,100002.44
2023-01-13T08:23:53.059Z,100006.91
2023-01-13T08:26:21.242Z,100014.22
2023-01-13T08:28:49.633Z,100017.31
2023-01-13T08:31:19.823Z,100025.63
2023-01-13T08:33:49.249Z,100015.34
2023-01-13T08:36:18.593Z,100003.22
2023-01-13T08:38:48.321Z,100001.25
2023-01-13T08:41:38.946Z,99995.94
2023-01-13T08:44:09.404Z,99997.91
2023-01-13T08:46:38.018Z,100000.09
2023-01-13T08:49:06.103Z,99998.09
2023-01-13T08:51:34.411Z,99988.63
2023-01-13T08:54:04.063Z,100000.75
2023-01-13T08:56:35.301Z,100033.06
2023-01-13T08:59:04.853Z,100040.38
2023-01-13T09:01:34.118Z,100049.16
2023-01-13T09:04:02.966Z,100032.75
2023-01-13T09:06:31.472Z,100037.38
2023-01-13T09:08:59.794Z,100047.47
2023-01-13T09:11:50.409Z,100018.78
2023-01-13T09:14:19.924Z,99994.38
2023-01-13T09:16:49.802Z,99944.50
2023-01-13T09:19:20.486Z,99873.84
2023-01-13T09:21:48.872Z,99916.63
2023-01-13T09:24:18.006Z,99990.91
2023-01-13T09:26:47.664Z,100001.53
2023-01-13T09:29:16.476Z,100023.56
2023-01-13T09:31:45.942Z,100031.19
2023-01-13T09:34:35.784Z,100021.47
2023-01-13T09:37:04.418Z,100015.50
2023-01-13T09:39:34.010Z,100016.50
2023-01-13T09:42:29.672Z,100001.31
2023-01-13T09:45:01.732Z,99990.69
2023-01-13T09:47:34.216Z,99982.06
2023-01-13T09:50:10.039Z,99989.16
2023-01-13T09:52:38.186Z,99992.84
2023-01-13T09:55:10.531Z,100005.47
2023-01-13T09:57:40.385Z,100015.53
2023-01-13T10:00:13.894Z,100013.41
2023-01-13T10:03:03.678Z,100009.09
2023-01-13T10:05:39.284Z,100016.50
2023-01-13T10:08:13.542Z,100014.94
2023-01-13T10:10:47.399Z,100017.56
2023-01-13T10:13:20.590Z,100018.88
2023-01-13T10:16:06.691Z,100021.66
2023-01-13T10:18:44.531Z,100020.34
2023-01-13T10:21:26.740Z,100027.44
2023-01-13T10:23:59.530Z,100029.00
2023-01-13T10:26:37.568Z,100028.19
2023-01-13T10:29:20.783Z,100027.84
2023-01-13T10:31:49.617Z,100028.19
2023-01-13T10:34:17.909Z,100019.53
2023-01-13T10:36:57.716Z,100019.81
2023-01-13T10:39:26.545Z,100020.47
2023-01-13T10:42:04.429Z,100023.78
2023-01-13T10:44:34.191Z,100017.78
2023-01-13T10:47:02.203Z,100012.81
2023-01-13T10:49:36.492Z,100015.44
2023-01-13T10:52:05.591Z,100018.44
2023-01-13T10:54:37.629Z,100018.16
2023-01-13T10:57:20.602Z,100028.03
2023-01-13T10:59:53.028Z,100026.06
2023-01-13T11:02:27.312Z,100018.91
2023-01-13T11:05:17.842Z,100020.22
2023-01-13T11:07:52.201Z,100017.09
2023-01-13T11:10:23.882Z,100009.97
2023-01-13T11:13:03.392Z,100017.09
2023-01-13T11:15:39.994Z,100017.13
2023-01-13T11:18:14.716Z,100027.06
2023-01-13T11:20:44.669Z,100020.47
2023-01-13T11:23:17.931Z,100019.84
2023-01-13T11:25:48.337Z,100022.25
2023-01-13T11:28:37.248Z,100019.78
2023-01-13T11:31:13.142Z,100018.19
2023-01-13T11:33:46.283Z,100019.97
2023-01-13T11:36:20.447Z,100025.28
2023-01-13T11:38:51.665Z,100021.69
2023-01-13T11:41:27.276Z,100018.44
2023-01-13T11:44:01.378Z,100011.47
2023-01-13T11:46:32.625Z,100018.66
2023-01-13T11:49:02.951Z,100019.88
2023-01-13T11:51:36.177Z,100011.47
2023-01-13T11:54:38.615Z,100016.78
2023-01-13T11:57:28.769Z,100016.78
2023-01-13T12:00:17.998Z,100013.28
2023-01-13T12:02:57.005Z,100018.75
2023-01-13T12:05:33.069Z,100020.75
2023-01-13T12:08:15.238Z,100019.09
2023-01-13T12:10:51.515Z,100012.94
2023-01-13T12:13:29.866Z,100019.41
2023-01-13T12:16:09.027Z,100024.03
2023-01-13T12:19:08.842Z,100020.56
2023-01-13T12:21:39.777Z,100023.22
2023-01-13T12:24:15.676Z,100007.94
2023-01-13T12:26:46.092Z,100017.56
2023-01-13T12:29:19.447Z,100019.72
2023-01-13T12:31:50.121Z,100015.09
2023-01-13T12:34:33.481Z,100031.53
2023-01-13T12:37:08.669Z,100012.09
2023-01-13T12:39:44.340Z,100026.69
2023-01-13T12:42:34.295Z,100028.53
2023-01-13T12:45:34.351Z,100031.50
2023-01-13T12:48:03.165Z,100028.19
2023-01-13T12:50:47.576Z,100034.81
2023-01-13T12:53:38.487Z,100046.28
2023-01-13T12:56:45.516Z,100040.13
2023-01-13T12:59:40.263Z,100045.13
2023-01-13T13:02:37.456Z,100058.72
2023-01-13T13:05:45.950Z,100049.09
2023-01-13T13:08:24.327Z,100035.50
2023-01-13T13:11:28.355Z,100041.47
2023-01-13T13:13:56.221Z,100035.16
2023-01-13T13:16:49.264Z,100047.25
2023-01-13T13:19:49.923Z,100043.78
2023-01-13T13:22:53.843Z,100059.25
2023-01-13T13:25:26.358Z,100049.63
2023-01-13T13:28:03.117Z,100050.75
2023-01-13T13:30:35.891Z,100046.13
2023-01-13T13:33:21.124Z,100052.91
2023-01-13T13:35:59.220Z,100058.56
2023-01-13T13:39:04.456Z,100058.72
2023-01-13T13:41:56.267Z,100066.03
2023-01-13T13:44:58.927Z,100069.66
2023-01-13T13:47:27.404Z,100068.84
2023-01-13T13:49:57.095Z,100064.53
2023-01-13T13:52:33.924Z,100064.38
2023-01-13T13:55:12.692Z,100067.69
2023-01-13T13:57:46.480Z,100067.53
2023-01-13T14:00:26.951Z,100067.66
2023-01-13T14:03:00.816Z,100072.31
2023-01-13T14:05:30.676Z,100068.31
2023-01-13T14:08:03.591Z,100066.84
2023-01-13T14:10:35.583Z,100072.63
2023-01-13T14:13:15.555Z,100076.91
2023-01-13T14:15:47.633Z,100071.75
2023-01-13T14:18:17.492Z,100064.78
2023-01-13T14:20:57.283Z,100089.34
2023-01-13T14:23:30.800Z,100084.88
2023-01-13T14:26:03.622Z,100082.88
2023-01-13T14:28:38.274Z,100082.06
2023-01-13T14:31:12.086Z,100074.59
2023-01-13T14:33:43.357Z,100088.19
2023-01-13T14:36:21.559Z,100075.91
2023-01-13T14:38:51.559Z,100078.06
2023-01-13T14:41:23.238Z,100088.50
2023-01-13T14:43:56.251Z,100090.16
2023-01-13T14:46:25.625Z,100082.88
2023-01-13T14:49:00.482Z,100082.22
2023-01-13T14:51:30.389Z,100070.28
2023-01-13T14:53:59.814Z,100072.94
2023-01-13T14:56:42.087Z,100075.91
2023-01-13T14:59:37.613Z,100086.03
2023-01-13T15:02:37.942Z,100080.88
2023-01-13T15:05:48.054Z,100086.19
2023-01-13T15:08:30.617Z,100093.31
2023-01-13T15:11:02.838Z,100095.47
2023-01-13T15:13:35.912Z,100097.94
2023-01-13T15:16:07.671Z,100100.59
2023-01-13T15:18:39.939Z,100095.94
2023-01-13T15:21:09.239Z,100095.75
2023-01-13T15:23:37.484Z,100090.44
2023-01-13T15:26:07.674Z,100104.31
2023-01-13T15:28:35.817Z,100095.69
2023-01-13T15:31:07.157Z,100107.72
2023-01-13T15:33:35.475Z,100106.91
2023-01-13T15:36:03.902Z,100113.50
2023-01-13T15:38:32.203Z,100118.16
2023-01-13T15:41:01.017Z,100117.47
2023-01-13T15:43:47.006Z,100125.06
2023-01-13T15:46:36.413Z,100128.34
2023-01-13T15:49:10.052Z,100140.59
2023-01-13T15:51:38.898Z,100135.84
2023-01-13T15:54:09.476Z,100127.50
2023-01-13T15:56:39.068Z,100128.50
2023-01-13T15:59:15.900Z,100127.19
2023-01-13T16:01:46.221Z,100131.00
2023-01-13T16:04:14.459Z,100134.28
2023-01-13T16:06:43.423Z,100144.56
2023-01-13T16:09:15.118Z,100146.91
2023-01-13T16:11:45.110Z,100145.72
2023-01-13T16:14:15.695Z,100146.19
2023-01-13T16:16:46.009Z,100154.13
2023-01-13T16:19:14.159Z,100152.09
2023-01-13T16:21:42.164Z,100150.66
2023-01-13T16:24:10.488Z,100157.47
2023-01-13T16:26:39.950Z,100156.13
2023-01-13T16:29:09.654Z,100159.03
2023-01-13T16:31:40.824Z,100164.34
2023-01-13T16:34:10.818Z,100168.66
2023-01-13T16:36:41.187Z,100175.09
2023-01-13T16:39:22.105Z,100183.88
2023-01-13T16:41:53.798Z,100172.31
2023-01-13T16:44:23.181Z,100180.56
2023-01-13T16:46:52.316Z,100179.25
2023-01-13T16:49:23.273Z,100190.19
2023-01-13T16:51:51.732Z,100183.53
2023-01-13T16:54:21.456Z,100193.81
2023-01-13T16:56:49.721Z,100201.41
2023-01-13T16:59:18.789Z,100205.34
2023-01-13T17:01:47.116Z,100202.25
2023-01-13T17:04:17.295Z,100206.94
2023-01-13T17:07:00.253Z,100210.03
2023-01-13T17:09:29.364Z,100211.03
2023-01-13T17:11:58.782Z,100218.59
2023-01-13T17:14:29.049Z,100209.50
2023-01-13T17:16:59.956Z,100219.97
2023-01-13T17:19:33.344Z,100227.44
2023-01-13T17:22:03.095Z,100218.50
2023-01-13T17:24:37.661Z,100231.38
2023-01-13T17:27:07.139Z,100236.63
2023-01-13T17:29:37.016Z,100226.16
2023-01-13T17:32:08.017Z,100233.97
2023-01-13T17:34:41.120Z,100235.66
2023-01-13T17:37:14.511Z,100250.69
2023-01-13T17:39:46.382Z,100259.31
2023-01-13T17:42:16.160Z,100258.47
2023-01-13T17:44:48.270Z,100257.38
2023-01-13T17:47:19.449Z,100260.59
2023-01-13T17:49:49.787Z,100256.72
2023-01-13T17:52:22.273Z,100271.09
2023-01-13T17:54:53.237Z,100268.97
2023-01-13T17:57:23.485Z,100270.34
2023-01-13T18:00:00.543Z,100272.44
2023-01-13T18:02:30.833Z,100271.59
2023-01-13T18:05:00.419Z,100269.63
2023-01-13T18:07:32.133Z,100271.59
2023-01-13T18:10:01.892Z,100269.91
2023-01-13T18:12:30.944Z,100269.50
2023-01-13T18:15:01.228Z,100273.81
2023-01-13T18:17:31.665Z,100280.22
2023-01-13T18:20:17.548Z,100277.44
2023-01-13T18:23:07.847Z,100281.06
2023-01-13T18:25:54.922Z,100276.84
2023-01-13T18:28:23.576Z,100281.25
2023-01-13T18:30:53.653Z,100287.09
2023-01-13T18:33:25.548Z,100278.00
2023-01-13T18:35:53.862Z,100277.03
2023-01-13T18:38:26.043Z,100258.03
2023-01-13T18:40:54.198Z,100285.50
2023-01-13T18:43:23.248Z,100297.91
2023-01-13T18:45:52.874Z,100299.41
2023-01-13T18:48:22.551Z,100294.50
2023-01-13T18:50:50.661Z,100296.00
2023-01-13T18:53:21.120Z,100296.78
2023-01-13T18:55:50.941Z,100292.31
2023-01-13T18:58:20.730Z,100299.44
2023-01-13T19:00:52.069Z,100311.75
2023-01-13T19:03:29.925Z,100316.22
2023-01-13T19:06:03.044Z,100310.38
2023-01-13T19:08:33.623Z,100311.91
2023-01-13T19:11:06.629Z,100322.91
2023-01-13T19:13:36.247Z,100319.56
2023-01-13T19:16:06.585Z,100316.94
2023-01-13T19:18:37.083Z,100322.66
2023-01-13T19:21:08.880Z,100327.94
2023-01-13T19:23:37.861Z,100332.78
2023-01-13T19:26:10.558Z,100325.00
2023-01-13T19:28:42.167Z,100328.31
2023-01-13T19:31:12.418Z,100347.53
2023-01-13T19:33:43.416Z,100344.59
2023-01-13T19:36:12.100Z,100344.75
2023-01-13T19:38:42.451Z,100346.94
2023-01-13T19:41:34.627Z,100354.22
2023-01-13T19:44:20.676Z,100350.66
2023-01-13T19:46:48.771Z,100364.22
2023-01-13T19:49:17.224Z,100353.91
2023-01-13T19:51:45.552Z,100360.19
2023-01-13T19:54:13.875Z,100357.00
2023-01-13T19:56:44.308Z,100360.56
2023-01-13T19:59:13.576Z,100373.97
2023-01-13T20:01:42.172Z,100368.97
2023-01-13T20:04:14.389Z,100366.09
2023-01-13T20:06:42.735Z,100384.34
2023-01-13T20:09:13.224Z,100386.28
2023-01-13T20:11:41.665Z,100387.28
2023-01-13T20:14:13.882Z,100384.03
2023-01-13T20:16:41.978Z,100387.13
2023-01-13T20:19:10.991Z,100397.56
2023-01-13T20:21:41.063Z,100400.53
2023-01-13T20:24:11.397Z,100404.69
2023-01-13T20:26:40.989Z,100405.22
2023-01-13T20:29:09.209Z,100406.19
2023-01-13T20:31:39.811Z,100404.38
2023-01-13T20:34:13.040Z,100423.38
2023-01-13T20:36:43.550Z,100417.91
2023-01-13T20:39:15.304Z,100414.44
2023-01-13T20:42:01.268Z,100411.09
2023-01-13T20:44:29.987Z,100429.63
2023-01-13T20:46:59.630Z,100426.00
2023-01-13T20:49:28.758Z,100417.78
2023-01-13T20:51:58.857Z,100413.06
2023-01-13T20:54:31.491Z,100408.31
2023-01-13T20:57:00.471Z,100414.72
2023-01-13T20:59:29.669Z,100429.94
2023-01-13T21:02:00.535Z,100435.91
2023-01-13T21:04:28.759Z,100436.06
2023-01-13T21:06:57.140Z,100431.47
2023-01-13T21:09:26.571Z,100427.28
2023-01-13T21:12:14.567Z,100437.19
2023-01-13T21:15:00.621Z,100441.22
2023-01-13T21:17:47.331Z,100446.22
2023-01-13T21:20:16.069Z,100435.63
2023-01-13T21:22:47.673Z,100430.91
2023-01-13T21:25:16.798Z,100430.09
2023-01-13T21:27:45.300Z,100432.59
2023-01-13T21:30:15.655Z,100439.56
2023-01-13T21:32:46.850Z,100447.78
2023-01-13T21:35:17.844Z,100452.41
2023-01-13T21:37:45.939Z,100456.47
2023-01-13T21:40:15.664Z,100461.06
2023-01-13T21:43:01.136Z,100465.66
2023-01-13T21:45:46.798Z,100462.44
2023-01-13T21:48:17.218Z,100459.25
2023-01-13T21:50:45.563Z,100459.25
2023-01-13T21:53:13.553Z,100460.91
2023-01-13T21:55:42.535Z,100451.59
2023-01-13T21:58:12.521Z,100469.56
2023-01-13T22:00:42.581Z,100468.88
2023-01-13T22:03:11.465Z,100475.69
2023-01-13T22:05:42.248Z,100468.44
2023-01-13T22:08:13.646Z,100470.25
2023-01-13T22:10:58.308Z,100467.75
2023-01-13T22:13:47.634Z,100489.06
2023-01-13T22:16:16.751Z,100490.31
2023-01-13T22:18:45.521Z,100491.00
2023-01-13T22:21:14.902Z,100483.38
2023-01-13T22:23:42.995Z,100493.94
2023-01-13T22:26:12.289Z,100504.41
2023-01-13T22:28:44.249Z,100488.94
2023-01-13T22:31:14.710Z,100503.69
2023-01-13T22:33:49.623Z,100498.97
2023-01-13T22:36:19.665Z,100511.78
2023-01-13T22:38:49.708Z,100510.09
2023-01-13T22:41:19.241Z,100516.22
2023-01-13T22:43:51.000Z,100515.69
2023-01-13T22:46:19.343Z,100506.50
2023-01-13T22:48:48.367Z,100520.13
2023-01-13T22:51:20.547Z,100515.81
2023-01-13T22:53:51.291Z,100527.53
2023-01-13T22:56:23.848Z,100536.28
2023-01-13T22:58:57.121Z,100537.13
2023-01-13T23:01:27.462Z,100533.38
2023-01-13T23:03:56.763Z,100547.84
2023-01-13T23:06:26.658Z,100551.47
2023-01-13T23:08:58.337Z,100552.97
2023-01-13T23:11:30.431Z,100560.22
2023-01-13T23:14:00.319Z,100549.34
2023-01-13T23:16:31.951Z,100552.66
2023-01-13T23:19:00.692Z,100555.44
2023-01-13T23:21:30.932Z,100554.63
2023-01-13T23:24:01.736Z,100551.00
2023-01-13T23:26:31.497Z,100562.13
2023-01-13T23:29:00.810Z,100569.09
2023-01-13T23:31:30.624Z,100566.88
2023-01-13T23:33:59.155Z,100566.03
2023-01-13T23:36:30.466Z,100555.06
2023-01-13T23:39:00.912Z,100562.41
2023-01-13T23:41:29.485Z,100568.53
2023-01-13T23:44:00.626Z,100577.72
2023-01-13T23:46:29.260Z,100577.19
2023-01-13T23:48:58.844Z,100578.16
2023-01-13T23:51:31.114Z,100566.44
2023-01-13T23:54:02.907Z,100578.13
2023-01-13T23:56:34.936Z,100574.94
2023-01-13T23:59:03.350Z,100576.16
